LKMT/OSR METAR and TAF weather

Enter ICAO airport designator
Station Type Date Time Source
LKMT METAR 2020/09/19 01:30 UTC NOAA

LKMT 190130Z 07005KT CAVOK 06/06 Q1026 NOSIG


Station Type Date Time Source
LKMT Decoded METAR 2020/09/19 01:30 UTC NOAA

Ostrava / Mosnov, Czech Republic (LKMT) 49-41N 018-07E 256M
Sep 18, 2020 - 09:30 PM EDT / 2020.09.19 0130 UTC
Wind: from the ENE (070 degrees) at 6 MPH (5 KT):0
Visibility: greater than 7 mile(s):0
Temperature: 42 F (6 C)
Dew Point: 42 F (6 C)
Relative Humidity: 100%
Pressure (altimeter): 30.30 in. Hg (1026 hPa)
ob: LKMT 190130Z 07005KT CAVOK 06/06 Q1026 NOSIG
cycle: 1

Station Type Date Time Source
LKMT TAF 2020/09/18 18:12 UTC NOAA

TAF LKMT 181700Z 1818/2000 03006KT CAVOK
TEMPO 1902/1907 VRB02KT

Example: see airport list